フェニックス の空港の天気 - METARとTAF

フェニックス・スカイハーバー国際空港 ( KPHX / PHX ) - アメリカ アリゾナ州フェニックス
飛行場実況気象(Metar)
観測時間01/19 03:51 MST (01/19 10:51 UTC)
風向・風速東 2m/s
視程10km以上
天気現象
少しの雲 雲底高度 7620m
気温10.6℃
湿度50%
気圧1023.3hPa
METARKPHX 191051Z 08004KT 10SM FEW250 11/01 A3024 RMK AO2 SLP233 T01060006 $
過去の天気等 Google飛行場航空写真 Wunderground天気予報

過去48時間のMETAR

飛行場予報(TAF)
発表時間: 1/19 01:42 MST (1/19 08:42 UTC)
予報対象時間: 19日2時 MST ~ 20日5時 MST
風向・風速不定 2m/s
視程10km以上
なし
19日5時 MST から
風向・風速東北東 3m/s
視程10km以上
なし
19日15時 MST から
風向・風速西北西 3m/s
視程10km以上
少しの雲 雲底高度 7620m
19日22時 MST から
風向・風速東 2m/s
視程10km以上
全天の4割程度の雲 雲底高度 7620m
KPHX 190842Z 1909/2012 VRB03KT P6SM SKC
FM191200 06005KT P6SM SKC
FM192200 30006KT P6SM FEW250
FM200500 08004KT P6SM SCT250